sensor_id;sensor_type;location;lat;lon;timestamp;temperature;humidity
20726;DHT22;10524;48.132;8.518;2024-01-25T00:01:39;5.70;99.90
20726;DHT22;10524;48.132;8.518;2024-01-25T00:04:05;5.60;99.90
20726;DHT22;10524;48.132;8.518;2024-01-25T00:06:31;5.60;99.90
20726;DHT22;10524;48.132;8.518;2024-01-25T00:08:56;5.60;99.90
20726;DHT22;10524;48.132;8.518;2024-01-25T00:11:22;5.50;99.90
20726;DHT22;10524;48.132;8.518;2024-01-25T00:13:48;5.50;99.90
20726;DHT22;10524;48.132;8.518;2024-01-25T00:16:13;5.50;99.90
20726;DHT22;10524;48.132;8.518;2024-01-25T00:18:39;5.50;99.90
20726;DHT22;10524;48.132;8.518;2024-01-25T00:21:05;5.50;99.90
20726;DHT22;10524;48.132;8.518;2024-01-25T00:23:30;5.50;99.90
20726;DHT22;10524;48.132;8.518;2024-01-25T00:25:56;5.50;99.90
20726;DHT22;10524;48.132;8.518;2024-01-25T00:28:25;5.50;99.90
20726;DHT22;10524;48.132;8.518;2024-01-25T00:30:51;5.50;99.90
20726;DHT22;10524;48.132;8.518;2024-01-25T00:33:17;5.50;99.90
20726;DHT22;10524;48.132;8.518;2024-01-25T00:35:42;5.60;99.90
20726;DHT22;10524;48.132;8.518;2024-01-25T00:38:09;5.60;99.90
20726;DHT22;10524;48.132;8.518;2024-01-25T00:40:35;5.70;99.90
20726;DHT22;10524;48.132;8.518;2024-01-25T00:43:01;5.80;99.90
20726;DHT22;10524;48.132;8.518;2024-01-25T00:45:27;5.90;99.90
20726;DHT22;10524;48.132;8.518;2024-01-25T00:47:53;6.00;99.90
20726;DHT22;10524;48.132;8.518;2024-01-25T00:50:19;6.00;99.90
20726;DHT22;10524;48.132;8.518;2024-01-25T00:52:47;5.90;99.90
20726;DHT22;10524;48.132;8.518;2024-01-25T00:55:14;5.90;99.90
20726;DHT22;10524;48.132;8.518;2024-01-25T00:57:40;5.90;99.90
20726;DHT22;10524;48.132;8.518;2024-01-25T01:00:07;5.80;99.90
20726;DHT22;10524;48.132;8.518;2024-01-25T01:02:39;5.80;99.90
20726;DHT22;10524;48.132;8.518;2024-01-25T01:05:05;5.80;99.90
20726;DHT22;10524;48.132;8.518;2024-01-25T01:07:31;5.80;99.90
20726;DHT22;10524;48.132;8.518;2024-01-25T01:09:57;5.80;99.90
20726;DHT22;10524;48.132;8.518;2024-01-25T01:12:22;5.80;99.90
20726;DHT22;10524;48.132;8.518;2024-01-25T01:14:48;5.70;99.90
20726;DHT22;10524;48.132;8.518;2024-01-25T01:17:15;5.70;99.90
20726;DHT22;10524;48.132;8.518;2024-01-25T01:19:41;5.70;99.90
20726;DHT22;10524;48.132;8.518;2024-01-25T01:22:07;5.60;99.90
20726;DHT22;10524;48.132;8.518;2024-01-25T01:24:32;5.60;99.90
20726;DHT22;10524;48.132;8.518;2024-01-25T01:26:58;5.70;99.90
20726;DHT22;10524;48.132;8.518;2024-01-25T01:29:24;5.60;99.90
20726;DHT22;10524;48.132;8.518;2024-01-25T01:31:50;5.60;99.90
20726;DHT22;10524;48.132;8.518;2024-01-25T01:34:16;5.60;99.90
20726;DHT22;10524;48.132;8.518;2024-01-25T01:36:43;5.60;99.90
20726;DHT22;10524;48.132;8.518;2024-01-25T01:39:09;5.60;99.90
20726;DHT22;10524;48.132;8.518;2024-01-25T01:41:35;5.60;99.90
20726;DHT22;10524;48.132;8.518;2024-01-25T01:44:00;5.60;99.90
20726;DHT22;10524;48.132;8.518;2024-01-25T01:46:35;5.60;99.90
20726;DHT22;10524;48.132;8.518;2024-01-25T01:49:03;5.60;99.90
20726;DHT22;10524;48.132;8.518;2024-01-25T01:51:32;5.60;99.90
20726;DHT22;10524;48.132;8.518;2024-01-25T01:54:03;5.60;99.90
20726;DHT22;10524;48.132;8.518;2024-01-25T01:56:31;5.50;99.90
20726;DHT22;10524;48.132;8.518;2024-01-25T01:59:01;5.50;99.90
20726;DHT22;10524;48.132;8.518;2024-01-25T02:01:29;5.50;99.90
20726;DHT22;10524;48.132;8.518;2024-01-25T02:03:55;5.50;99.90
20726;DHT22;10524;48.132;8.518;2024-01-25T02:06:22;5.50;99.90
20726;DHT22;10524;48.132;8.518;2024-01-25T02:08:48;5.50;99.90
20726;DHT22;10524;48.132;8.518;2024-01-25T02:11:16;5.50;99.90
20726;DHT22;10524;48.132;8.518;2024-01-25T02:13:43;5.60;99.90
20726;DHT22;10524;48.132;8.518;2024-01-25T02:16:08;5.60;99.90
20726;DHT22;10524;48.132;8.518;2024-01-25T02:18:35;5.60;99.90
20726;DHT22;10524;48.132;8.518;2024-01-25T02:21:01;5.70;99.90
20726;DHT22;10524;48.132;8.518;2024-01-25T02:23:26;5.80;99.90
20726;DHT22;10524;48.132;8.518;2024-01-25T02:25:53;5.90;99.90
20726;DHT22;10524;48.132;8.518;2024-01-25T02:28:18;5.90;99.90
20726;DHT22;10524;48.132;8.518;2024-01-25T02:30:44;5.90;99.90
20726;DHT22;10524;48.132;8.518;2024-01-25T02:33:10;5.90;99.90
20726;DHT22;10524;48.132;8.518;2024-01-25T02:35:37;5.90;99.90
20726;DHT22;10524;48.132;8.518;2024-01-25T02:38:03;5.90;99.90
20726;DHT22;10524;48.132;8.518;2024-01-25T02:40:29;5.90;99.90
20726;DHT22;10524;48.132;8.518;2024-01-25T02:42:55;5.90;99.90
20726;DHT22;10524;48.132;8.518;2024-01-25T02:45:22;5.90;99.90
20726;DHT22;10524;48.132;8.518;2024-01-25T02:47:48;5.80;99.90
20726;DHT22;10524;48.132;8.518;2024-01-25T02:50:14;5.90;99.90
20726;DHT22;10524;48.132;8.518;2024-01-25T02:52:41;5.80;99.90
20726;DHT22;10524;48.132;8.518;2024-01-25T02:55:07;5.80;99.90
20726;DHT22;10524;48.132;8.518;2024-01-25T02:57:33;5.80;99.90
20726;DHT22;10524;48.132;8.518;2024-01-25T02:59:59;5.80;99.90
20726;DHT22;10524;48.132;8.518;2024-01-25T03:02:24;5.70;99.90
20726;DHT22;10524;48.132;8.518;2024-01-25T03:04:50;5.70;99.90
20726;DHT22;10524;48.132;8.518;2024-01-25T03:07:16;5.70;99.90
20726;DHT22;10524;48.132;8.518;2024-01-25T03:09:41;5.70;99.90
20726;DHT22;10524;48.132;8.518;2024-01-25T03:12:07;5.70;99.90
20726;DHT22;10524;48.132;8.518;2024-01-25T03:14:33;5.70;99.90
20726;DHT22;10524;48.132;8.518;2024-01-25T03:16:59;5.70;99.90
20726;DHT22;10524;48.132;8.518;2024-01-25T03:19:26;5.70;99.90
20726;DHT22;10524;48.132;8.518;2024-01-25T03:21:52;5.70;99.90
20726;DHT22;10524;48.132;8.518;2024-01-25T03:24:18;5.80;99.90
20726;DHT22;10524;48.132;8.518;2024-01-25T03:26:44;5.90;99.90
20726;DHT22;10524;48.132;8.518;2024-01-25T03:29:09;5.90;99.90
20726;DHT22;10524;48.132;8.518;2024-01-25T03:31:35;5.90;99.90
20726;DHT22;10524;48.132;8.518;2024-01-25T03:34:02;5.90;99.90
20726;DHT22;10524;48.132;8.518;2024-01-25T03:36:28;5.90;99.90
20726;DHT22;10524;48.132;8.518;2024-01-25T03:38:53;5.90;99.90
20726;DHT22;10524;48.132;8.518;2024-01-25T03:41:20;5.90;99.90
20726;DHT22;10524;48.132;8.518;2024-01-25T03:43:45;6.00;99.90
20726;DHT22;10524;48.132;8.518;2024-01-25T03:46:14;5.90;99.90
20726;DHT22;10524;48.132;8.518;2024-01-25T03:48:39;5.90;99.90
20726;DHT22;10524;48.132;8.518;2024-01-25T03:51:05;5.90;99.90
20726;DHT22;10524;48.132;8.518;2024-01-25T03:53:31;5.90;99.90
20726;DHT22;10524;48.132;8.518;2024-01-25T03:55:57;5.90;99.90
20726;DHT22;10524;48.132;8.518;2024-01-25T03:58:23;5.90;99.90
20726;DHT22;10524;48.132;8.518;2024-01-25T04:00:48;5.80;99.90
20726;DHT22;10524;48.132;8.518;2024-01-25T04:03:14;5.90;99.90
20726;DHT22;10524;48.132;8.518;2024-01-25T04:05:40;5.90;99.90
20726;DHT22;10524;48.132;8.518;2024-01-25T04:08:06;5.80;99.90
20726;DHT22;10524;48.132;8.518;2024-01-25T04:10:32;5.90;99.90
20726;DHT22;10524;48.132;8.518;2024-01-25T04:12:58;5.80;99.90
20726;DHT22;10524;48.132;8.518;2024-01-25T04:15:26;5.80;99.90
20726;DHT22;10524;48.132;8.518;2024-01-25T04:17:52;5.80;99.90
20726;DHT22;10524;48.132;8.518;2024-01-25T04:20:19;5.80;99.90
20726;DHT22;10524;48.132;8.518;2024-01-25T04:22:45;5.80;99.90
20726;DHT22;10524;48.132;8.518;2024-01-25T04:25:11;5.80;99.90
20726;DHT22;10524;48.132;8.518;2024-01-25T04:27:40;5.80;99.90
20726;DHT22;10524;48.132;8.518;2024-01-25T04:30:07;5.80;99.90
20726;DHT22;10524;48.132;8.518;2024-01-25T04:32:33;5.70;99.90
20726;DHT22;10524;48.132;8.518;2024-01-25T04:34:59;5.70;99.90
20726;DHT22;10524;48.132;8.518;2024-01-25T04:37:24;5.60;99.90
20726;DHT22;10524;48.132;8.518;2024-01-25T04:39:50;5.60;99.90
20726;DHT22;10524;48.132;8.518;2024-01-25T04:42:16;5.60;99.90
20726;DHT22;10524;48.132;8.518;2024-01-25T04:44:41;5.70;99.90
20726;DHT22;10524;48.132;8.518;2024-01-25T04:47:07;5.70;99.90
20726;DHT22;10524;48.132;8.518;2024-01-25T04:49:33;5.70;99.90
20726;DHT22;10524;48.132;8.518;2024-01-25T04:51:59;5.70;99.90
20726;DHT22;10524;48.132;8.518;2024-01-25T04:54:26;5.70;99.90
20726;DHT22;10524;48.132;8.518;2024-01-25T04:56:52;5.70;99.90
20726;DHT22;10524;48.132;8.518;2024-01-25T04:59:17;5.70;99.90
20726;DHT22;10524;48.132;8.518;2024-01-25T05:01:43;5.70;99.90
20726;DHT22;10524;48.132;8.518;2024-01-25T05:04:09;5.70;99.90
20726;DHT22;10524;48.132;8.518;2024-01-25T05:06:35;5.70;99.90
20726;DHT22;10524;48.132;8.518;2024-01-25T05:09:00;5.60;99.90
20726;DHT22;10524;48.132;8.518;2024-01-25T05:11:26;5.60;99.90
20726;DHT22;10524;48.132;8.518;2024-01-25T05:13:52;5.60;99.90
20726;DHT22;10524;48.132;8.518;2024-01-25T05:16:17;5.60;99.90
20726;DHT22;10524;48.132;8.518;2024-01-25T05:18:43;5.60;99.90
20726;DHT22;10524;48.132;8.518;2024-01-25T05:21:09;5.60;99.90
20726;DHT22;10524;48.132;8.518;2024-01-25T05:23:35;5.60;99.90
20726;DHT22;10524;48.132;8.518;2024-01-25T05:26:01;5.60;99.90
20726;DHT22;10524;48.132;8.518;2024-01-25T05:28:27;5.60;99.90
20726;DHT22;10524;48.132;8.518;2024-01-25T05:30:53;5.50;99.90
20726;DHT22;10524;48.132;8.518;2024-01-25T05:33:18;5.60;99.90
20726;DHT22;10524;48.132;8.518;2024-01-25T05:35:44;5.50;99.90
20726;DHT22;10524;48.132;8.518;2024-01-25T05:38:10;5.50;99.90
20726;DHT22;10524;48.132;8.518;2024-01-25T05:40:36;5.50;99.90
20726;DHT22;10524;48.132;8.518;2024-01-25T05:43:02;5.40;99.90
20726;DHT22;10524;48.132;8.518;2024-01-25T05:45:28;5.40;99.90
20726;DHT22;10524;48.132;8.518;2024-01-25T05:47:54;5.40;99.90
20726;DHT22;10524;48.132;8.518;2024-01-25T05:50:19;5.40;99.90
20726;DHT22;10524;48.132;8.518;2024-01-25T05:52:45;5.40;99.90
20726;DHT22;10524;48.132;8.518;2024-01-25T05:55:11;5.40;99.90
20726;DHT22;10524;48.132;8.518;2024-01-25T05:57:39;5.40;99.90
20726;DHT22;10524;48.132;8.518;2024-01-25T06:00:05;5.40;99.90
20726;DHT22;10524;48.132;8.518;2024-01-25T06:02:34;5.30;99.90
20726;DHT22;10524;48.132;8.518;2024-01-25T06:05:00;5.30;99.90
20726;DHT22;10524;48.132;8.518;2024-01-25T06:07:26;5.30;99.90
20726;DHT22;10524;48.132;8.518;2024-01-25T06:09:52;5.30;99.90
20726;DHT22;10524;48.132;8.518;2024-01-25T06:12:18;5.30;99.90
20726;DHT22;10524;48.132;8.518;2024-01-25T06:14:44;5.20;99.90
20726;DHT22;10524;48.132;8.518;2024-01-25T06:17:10;5.20;99.90
20726;DHT22;10524;48.132;8.518;2024-01-25T06:19:36;5.20;99.90
20726;DHT22;10524;48.132;8.518;2024-01-25T06:22:01;5.20;99.90
20726;DHT22;10524;48.132;8.518;2024-01-25T06:24:28;5.20;99.90
20726;DHT22;10524;48.132;8.518;2024-01-25T06:26:54;5.20;99.90
20726;DHT22;10524;48.132;8.518;2024-01-25T06:29:20;5.20;99.90
20726;DHT22;10524;48.132;8.518;2024-01-25T06:31:46;5.20;99.90
20726;DHT22;10524;48.132;8.518;2024-01-25T06:34:12;5.20;99.90
20726;DHT22;10524;48.132;8.518;2024-01-25T06:36:38;5.20;99.90
20726;DHT22;10524;48.132;8.518;2024-01-25T06:39:04;5.20;99.90
20726;DHT22;10524;48.132;8.518;2024-01-25T06:41:31;5.20;99.90
20726;DHT22;10524;48.132;8.518;2024-01-25T06:43:57;5.20;99.90
20726;DHT22;10524;48.132;8.518;2024-01-25T06:46:22;5.20;99.90
20726;DHT22;10524;48.132;8.518;2024-01-25T06:48:50;5.20;99.90
20726;DHT22;10524;48.132;8.518;2024-01-25T06:51:16;5.20;99.90
20726;DHT22;10524;48.132;8.518;2024-01-25T06:53:41;5.20;99.90
20726;DHT22;10524;48.132;8.518;2024-01-25T06:56:07;5.10;99.90
20726;DHT22;10524;48.132;8.518;2024-01-25T06:58:33;5.10;99.90
20726;DHT22;10524;48.132;8.518;2024-01-25T07:01:01;5.10;99.90
20726;DHT22;10524;48.132;8.518;2024-01-25T07:03:28;5.10;99.90
20726;DHT22;10524;48.132;8.518;2024-01-25T07:05:53;5.00;99.90
20726;DHT22;10524;48.132;8.518;2024-01-25T07:08:19;5.00;99.90
20726;DHT22;10524;48.132;8.518;2024-01-25T07:10:45;5.00;99.90
20726;DHT22;10524;48.132;8.518;2024-01-25T07:13:11;5.00;99.90
20726;DHT22;10524;48.132;8.518;2024-01-25T07:15:37;5.00;99.90
20726;DHT22;10524;48.132;8.518;2024-01-25T07:18:02;5.00;99.90
20726;DHT22;10524;48.132;8.518;2024-01-25T07:20:29;5.10;99.90
20726;DHT22;10524;48.132;8.518;2024-01-25T07:22:55;5.10;99.90
20726;DHT22;10524;48.132;8.518;2024-01-25T07:25:20;5.10;99.90
20726;DHT22;10524;48.132;8.518;2024-01-25T07:27:46;5.10;99.90
20726;DHT22;10524;48.132;8.518;2024-01-25T07:30:13;5.10;99.90
20726;DHT22;10524;48.132;8.518;2024-01-25T07:32:39;5.00;99.90
20726;DHT22;10524;48.132;8.518;2024-01-25T07:35:08;5.10;99.90
20726;DHT22;10524;48.132;8.518;2024-01-25T07:37:35;5.00;99.90
20726;DHT22;10524;48.132;8.518;2024-01-25T07:40:01;5.00;99.90
20726;DHT22;10524;48.132;8.518;2024-01-25T07:42:29;5.00;99.90
20726;DHT22;10524;48.132;8.518;2024-01-25T07:44:55;5.00;99.90
20726;DHT22;10524;48.132;8.518;2024-01-25T07:47:21;5.00;99.90
20726;DHT22;10524;48.132;8.518;2024-01-25T07:49:47;5.00;99.90
20726;DHT22;10524;48.132;8.518;2024-01-25T07:52:13;5.00;99.90
20726;DHT22;10524;48.132;8.518;2024-01-25T07:54:39;5.00;99.90
20726;DHT22;10524;48.132;8.518;2024-01-25T07:57:04;5.00;99.90
20726;DHT22;10524;48.132;8.518;2024-01-25T07:59:30;5.00;99.90
20726;DHT22;10524;48.132;8.518;2024-01-25T08:01:56;5.00;99.90
20726;DHT22;10524;48.132;8.518;2024-01-25T08:04:22;5.00;99.90
20726;DHT22;10524;48.132;8.518;2024-01-25T08:06:47;5.10;99.90
20726;DHT22;10524;48.132;8.518;2024-01-25T08:09:13;5.10;99.90
20726;DHT22;10524;48.132;8.518;2024-01-25T08:11:39;5.10;99.90
20726;DHT22;10524;48.132;8.518;2024-01-25T08:14:05;5.10;99.90
20726;DHT22;10524;48.132;8.518;2024-01-25T08:16:31;5.10;99.90
20726;DHT22;10524;48.132;8.518;2024-01-25T08:18:57;5.10;99.90
20726;DHT22;10524;48.132;8.518;2024-01-25T08:21:24;5.10;99.90
20726;DHT22;10524;48.132;8.518;2024-01-25T08:23:50;5.00;99.90
20726;DHT22;10524;48.132;8.518;2024-01-25T08:26:16;5.00;99.90
20726;DHT22;10524;48.132;8.518;2024-01-25T08:28:42;5.00;99.90
20726;DHT22;10524;48.132;8.518;2024-01-25T08:31:11;5.00;99.90
20726;DHT22;10524;48.132;8.518;2024-01-25T08:33:38;5.00;99.90
20726;DHT22;10524;48.132;8.518;2024-01-25T08:36:07;5.00;99.90
20726;DHT22;10524;48.132;8.518;2024-01-25T08:38:33;5.10;99.90
20726;DHT22;10524;48.132;8.518;2024-01-25T08:40:59;5.10;99.90
20726;DHT22;10524;48.132;8.518;2024-01-25T08:43:24;5.20;99.90
20726;DHT22;10524;48.132;8.518;2024-01-25T08:45:50;5.30;99.90
20726;DHT22;10524;48.132;8.518;2024-01-25T08:48:16;5.40;99.90
20726;DHT22;10524;48.132;8.518;2024-01-25T08:50:42;5.50;99.90
20726;DHT22;10524;48.132;8.518;2024-01-25T08:53:07;5.60;99.90
20726;DHT22;10524;48.132;8.518;2024-01-25T08:55:33;5.60;99.90
20726;DHT22;10524;48.132;8.518;2024-01-25T08:57:59;5.60;99.90
20726;DHT22;10524;48.132;8.518;2024-01-25T09:00:25;5.70;99.90
20726;DHT22;10524;48.132;8.518;2024-01-25T09:02:50;5.60;99.90
20726;DHT22;10524;48.132;8.518;2024-01-25T09:05:16;5.60;99.90
20726;DHT22;10524;48.132;8.518;2024-01-25T09:07:42;5.60;99.90
20726;DHT22;10524;48.132;8.518;2024-01-25T09:10:08;5.60;99.90
20726;DHT22;10524;48.132;8.518;2024-01-25T09:12:35;5.60;99.90
20726;DHT22;10524;48.132;8.518;2024-01-25T09:15:01;5.70;99.90
20726;DHT22;10524;48.132;8.518;2024-01-25T09:17:27;5.90;99.90
20726;DHT22;10524;48.132;8.518;2024-01-25T09:19:53;6.10;99.90
20726;DHT22;10524;48.132;8.518;2024-01-25T09:22:19;6.10;99.90
20726;DHT22;10524;48.132;8.518;2024-01-25T09:24:48;6.20;99.90
20726;DHT22;10524;48.132;8.518;2024-01-25T09:27:14;6.20;99.90
20726;DHT22;10524;48.132;8.518;2024-01-25T09:29:40;6.20;99.90
20726;DHT22;10524;48.132;8.518;2024-01-25T09:32:07;6.10;99.90
20726;DHT22;10524;48.132;8.518;2024-01-25T09:34:37;6.10;99.90
20726;DHT22;10524;48.132;8.518;2024-01-25T09:37:04;6.20;99.90
20726;DHT22;10524;48.132;8.518;2024-01-25T09:39:30;6.40;99.90
20726;DHT22;10524;48.132;8.518;2024-01-25T09:41:56;6.60;99.90
20726;DHT22;10524;48.132;8.518;2024-01-25T09:44:22;6.70;99.90
20726;DHT22;10524;48.132;8.518;2024-01-25T09:46:48;7.20;99.90
20726;DHT22;10524;48.132;8.518;2024-01-25T09:49:14;7.60;99.90
20726;DHT22;10524;48.132;8.518;2024-01-25T09:51:41;7.70;99.90
20726;DHT22;10524;48.132;8.518;2024-01-25T09:54:07;7.80;99.90
20726;DHT22;10524;48.132;8.518;2024-01-25T09:56:34;7.80;99.90
20726;DHT22;10524;48.132;8.518;2024-01-25T09:59:00;7.90;99.90
20726;DHT22;10524;48.132;8.518;2024-01-25T10:01:26;7.90;99.90
20726;DHT22;10524;48.132;8.518;2024-01-25T10:03:52;7.80;99.90
20726;DHT22;10524;48.132;8.518;2024-01-25T10:06:18;7.80;99.90
20726;DHT22;10524;48.132;8.518;2024-01-25T10:08:45;7.70;99.90
20726;DHT22;10524;48.132;8.518;2024-01-25T10:11:10;7.70;99.90
20726;DHT22;10524;48.132;8.518;2024-01-25T10:13:43;7.70;99.90
20726;DHT22;10524;48.132;8.518;2024-01-25T10:16:17;7.80;99.90
20726;DHT22;10524;48.132;8.518;2024-01-25T10:18:45;8.00;99.90
20726;DHT22;10524;48.132;8.518;2024-01-25T10:21:13;8.30;99.90
20726;DHT22;10524;48.132;8.518;2024-01-25T10:23:40;8.50;99.90
20726;DHT22;10524;48.132;8.518;2024-01-25T10:26:07;8.60;99.90
20726;DHT22;10524;48.132;8.518;2024-01-25T10:28:33;9.20;99.90
20726;DHT22;10524;48.132;8.518;2024-01-25T10:31:01;9.60;99.90
20726;DHT22;10524;48.132;8.518;2024-01-25T10:33:29;9.30;99.90
20726;DHT22;10524;48.132;8.518;2024-01-25T10:35:57;9.40;99.90
20726;DHT22;10524;48.132;8.518;2024-01-25T10:38:35;9.30;99.90
20726;DHT22;10524;48.132;8.518;2024-01-25T10:41:03;9.30;99.90
20726;DHT22;10524;48.132;8.518;2024-01-25T10:43:29;10.00;99.90
20726;DHT22;10524;48.132;8.518;2024-01-25T10:45:59;10.40;99.90
20726;DHT22;10524;48.132;8.518;2024-01-25T10:48:28;11.10;99.90
20726;DHT22;10524;48.132;8.518;2024-01-25T10:50:57;11.60;99.90
20726;DHT22;10524;48.132;8.518;2024-01-25T10:53:26;11.90;99.90
20726;DHT22;10524;48.132;8.518;2024-01-25T10:55:52;13.80;99.90
20726;DHT22;10524;48.132;8.518;2024-01-25T10:58:18;14.70;99.90
20726;DHT22;10524;48.132;8.518;2024-01-25T11:00:56;14.50;99.90
20726;DHT22;10524;48.132;8.518;2024-01-25T11:03:28;13.80;99.90
20726;DHT22;10524;48.132;8.518;2024-01-25T11:06:10;13.60;99.90
20726;DHT22;10524;48.132;8.518;2024-01-25T11:08:39;13.10;99.90
20726;DHT22;10524;48.132;8.518;2024-01-25T11:11:10;12.10;99.90
20726;DHT22;10524;48.132;8.518;2024-01-25T11:13:39;11.00;99.90
20726;DHT22;10524;48.132;8.518;2024-01-25T11:18:52;10.60;99.90
20726;DHT22;10524;48.132;8.518;2024-01-25T11:21:41;11.20;99.90
20726;DHT22;10524;48.132;8.518;2024-01-25T11:24:23;10.90;99.90
20726;DHT22;10524;48.132;8.518;2024-01-25T11:26:49;10.70;99.90
20726;DHT22;10524;48.132;8.518;2024-01-25T11:29:16;11.60;99.90
20726;DHT22;10524;48.132;8.518;2024-01-25T11:31:46;12.70;99.90
20726;DHT22;10524;48.132;8.518;2024-01-25T11:34:12;12.60;99.90
20726;DHT22;10524;48.132;8.518;2024-01-25T11:36:38;12.60;99.90
20726;DHT22;10524;48.132;8.518;2024-01-25T11:39:04;12.70;99.90
20726;DHT22;10524;48.132;8.518;2024-01-25T11:41:32;12.60;99.90
20726;DHT22;10524;48.132;8.518;2024-01-25T11:43:57;12.00;99.90
20726;DHT22;10524;48.132;8.518;2024-01-25T11:46:23;11.30;99.90
20726;DHT22;10524;48.132;8.518;2024-01-25T11:48:50;11.20;99.90
20726;DHT22;10524;48.132;8.518;2024-01-25T11:51:16;11.40;99.90
20726;DHT22;10524;48.132;8.518;2024-01-25T11:53:42;11.30;99.90
20726;DHT22;10524;48.132;8.518;2024-01-25T11:56:10;11.10;99.90
20726;DHT22;10524;48.132;8.518;2024-01-25T11:58:39;10.80;99.90
20726;DHT22;10524;48.132;8.518;2024-01-25T12:01:06;10.60;99.90
20726;DHT22;10524;48.132;8.518;2024-01-25T12:03:34;10.70;99.90
20726;DHT22;10524;48.132;8.518;2024-01-25T12:06:02;11.70;99.90
20726;DHT22;10524;48.132;8.518;2024-01-25T12:08:31;12.30;99.90
20726;DHT22;10524;48.132;8.518;2024-01-25T12:11:07;12.80;99.90
20726;DHT22;10524;48.132;8.518;2024-01-25T12:13:39;13.00;99.90
20726;DHT22;10524;48.132;8.518;2024-01-25T12:16:06;13.00;99.90
20726;DHT22;10524;48.132;8.518;2024-01-25T12:18:33;13.50;99.90
20726;DHT22;10524;48.132;8.518;2024-01-25T12:21:02;14.60;99.90
20726;DHT22;10524;48.132;8.518;2024-01-25T12:23:34;16.20;99.90
20726;DHT22;10524;48.132;8.518;2024-01-25T12:26:04;19.30;99.90
20726;DHT22;10524;48.132;8.518;2024-01-25T12:28:30;20.60;99.90
20726;DHT22;10524;48.132;8.518;2024-01-25T12:30:56;20.50;99.90
20726;DHT22;10524;48.132;8.518;2024-01-25T12:33:22;19.00;99.90
20726;DHT22;10524;48.132;8.518;2024-01-25T12:35:47;17.90;99.90
20726;DHT22;10524;48.132;8.518;2024-01-25T12:38:13;17.10;99.90
20726;DHT22;10524;48.132;8.518;2024-01-25T12:40:39;15.70;99.90
20726;DHT22;10524;48.132;8.518;2024-01-25T12:43:07;14.30;99.90
20726;DHT22;10524;48.132;8.518;2024-01-25T12:45:32;13.10;99.90
20726;DHT22;10524;48.132;8.518;2024-01-25T12:47:58;12.10;99.90
20726;DHT22;10524;48.132;8.518;2024-01-25T12:50:24;11.60;99.90
20726;DHT22;10524;48.132;8.518;2024-01-25T12:52:49;11.50;99.90
20726;DHT22;10524;48.132;8.518;2024-01-25T12:55:16;11.50;99.90
20726;DHT22;10524;48.132;8.518;2024-01-25T12:57:42;11.70;99.90
20726;DHT22;10524;48.132;8.518;2024-01-25T13:00:08;11.90;99.90
20726;DHT22;10524;48.132;8.518;2024-01-25T13:02:34;12.10;99.90
20726;DHT22;10524;48.132;8.518;2024-01-25T13:04:59;12.40;99.90
20726;DHT22;10524;48.132;8.518;2024-01-25T13:07:25;12.80;99.90
20726;DHT22;10524;48.132;8.518;2024-01-25T13:09:51;13.10;99.90
20726;DHT22;10524;48.132;8.518;2024-01-25T13:12:17;13.20;99.90
20726;DHT22;10524;48.132;8.518;2024-01-25T13:14:42;12.70;99.90
20726;DHT22;10524;48.132;8.518;2024-01-25T13:17:08;12.40;99.90
20726;DHT22;10524;48.132;8.518;2024-01-25T13:19:34;12.50;99.90
20726;DHT22;10524;48.132;8.518;2024-01-25T13:22:00;12.60;99.90
20726;DHT22;10524;48.132;8.518;2024-01-25T13:24:26;12.70;99.90
20726;DHT22;10524;48.132;8.518;2024-01-25T13:26:51;12.90;99.90
20726;DHT22;10524;48.132;8.518;2024-01-25T13:29:17;12.80;99.90
20726;DHT22;10524;48.132;8.518;2024-01-25T13:31:43;12.70;99.90
20726;DHT22;10524;48.132;8.518;2024-01-25T13:34:09;12.40;99.90
20726;DHT22;10524;48.132;8.518;2024-01-25T13:36:34;12.10;99.90
20726;DHT22;10524;48.132;8.518;2024-01-25T13:39:00;12.00;99.90
20726;DHT22;10524;48.132;8.518;2024-01-25T13:41:27;11.90;99.90
20726;DHT22;10524;48.132;8.518;2024-01-25T13:43:53;12.10;99.90
20726;DHT22;10524;48.132;8.518;2024-01-25T13:46:18;12.30;99.90
20726;DHT22;10524;48.132;8.518;2024-01-25T13:48:44;12.00;99.90
20726;DHT22;10524;48.132;8.518;2024-01-25T13:51:11;11.90;99.90
20726;DHT22;10524;48.132;8.518;2024-01-25T13:53:37;12.00;99.90
20726;DHT22;10524;48.132;8.518;2024-01-25T13:56:03;11.80;99.90
20726;DHT22;10524;48.132;8.518;2024-01-25T13:58:29;11.60;99.90
20726;DHT22;10524;48.132;8.518;2024-01-25T14:00:55;11.50;99.90
20726;DHT22;10524;48.132;8.518;2024-01-25T14:03:20;11.50;99.90
20726;DHT22;10524;48.132;8.518;2024-01-25T14:05:46;11.60;99.90
20726;DHT22;10524;48.132;8.518;2024-01-25T14:08:12;11.70;99.90
20726;DHT22;10524;48.132;8.518;2024-01-25T14:10:38;11.80;99.90
20726;DHT22;10524;48.132;8.518;2024-01-25T14:13:04;11.90;99.90
20726;DHT22;10524;48.132;8.518;2024-01-25T14:15:29;11.60;99.90
20726;DHT22;10524;48.132;8.518;2024-01-25T14:17:55;11.30;99.90
20726;DHT22;10524;48.132;8.518;2024-01-25T14:20:21;11.20;99.90
20726;DHT22;10524;48.132;8.518;2024-01-25T14:22:48;11.10;99.90
20726;DHT22;10524;48.132;8.518;2024-01-25T14:25:14;11.00;99.90
20726;DHT22;10524;48.132;8.518;2024-01-25T14:27:40;10.90;99.90
20726;DHT22;10524;48.132;8.518;2024-01-25T14:30:06;10.70;99.90
20726;DHT22;10524;48.132;8.518;2024-01-25T14:32:32;10.50;99.90
20726;DHT22;10524;48.132;8.518;2024-01-25T14:34:58;10.50;99.90
20726;DHT22;10524;48.132;8.518;2024-01-25T14:37:24;10.30;99.90
20726;DHT22;10524;48.132;8.518;2024-01-25T14:39:50;10.30;99.90
20726;DHT22;10524;48.132;8.518;2024-01-25T14:42:15;10.30;99.90
20726;DHT22;10524;48.132;8.518;2024-01-25T14:44:44;10.30;99.90
20726;DHT22;10524;48.132;8.518;2024-01-25T14:47:10;10.40;99.90
20726;DHT22;10524;48.132;8.518;2024-01-25T14:49:37;10.40;99.90
20726;DHT22;10524;48.132;8.518;2024-01-25T14:52:03;10.40;99.90
20726;DHT22;10524;48.132;8.518;2024-01-25T14:54:29;10.30;99.90
20726;DHT22;10524;48.132;8.518;2024-01-25T14:56:55;10.20;99.90
20726;DHT22;10524;48.132;8.518;2024-01-25T14:59:20;10.10;99.90
20726;DHT22;10524;48.132;8.518;2024-01-25T15:01:49;10.00;99.90
20726;DHT22;10524;48.132;8.518;2024-01-25T15:04:15;9.90;99.90
20726;DHT22;10524;48.132;8.518;2024-01-25T15:06:44;9.60;99.90
20726;DHT22;10524;48.132;8.518;2024-01-25T15:09:10;9.50;99.90
20726;DHT22;10524;48.132;8.518;2024-01-25T15:11:35;9.40;99.90
20726;DHT22;10524;48.132;8.518;2024-01-25T15:14:01;9.30;99.90
20726;DHT22;10524;48.132;8.518;2024-01-25T15:16:27;9.20;99.90
20726;DHT22;10524;48.132;8.518;2024-01-25T15:18:56;9.00;99.90
20726;DHT22;10524;48.132;8.518;2024-01-25T15:21:22;9.00;99.90
20726;DHT22;10524;48.132;8.518;2024-01-25T15:23:47;8.80;99.90
20726;DHT22;10524;48.132;8.518;2024-01-25T15:26:13;8.80;99.90
20726;DHT22;10524;48.132;8.518;2024-01-25T15:28:39;8.70;99.90
20726;DHT22;10524;48.132;8.518;2024-01-25T15:31:04;8.60;99.90
20726;DHT22;10524;48.132;8.518;2024-01-25T15:33:30;8.60;99.90
20726;DHT22;10524;48.132;8.518;2024-01-25T15:35:56;8.50;99.90
20726;DHT22;10524;48.132;8.518;2024-01-25T15:38:22;8.50;99.90
20726;DHT22;10524;48.132;8.518;2024-01-25T15:40:47;8.40;99.90